Time;durP1;ratioP1;P1;durP2;ratioP2;P2;SDS_P1;SDS_P2;PMS_P1;PMS_P2;Temp;Humidity;BMP_temperature;BMP_pressure;BME280_temperature;BME280_humidity;BME280_pressure;Samples;Min_cycle;Max_cycle;Signal;HPM_P1;HPM_P2
2023/09/14 00:01:15;;;;;;;2.50;2.30;;;22.10;99.90;;;;;;4975842;28;20457;-77
2023/09/14 00:03:43;;;;;;;3.13;2.83;;;22.00;99.90;;;;;;4978337;28;20440;-77
2023/09/14 00:06:10;;;;;;;2.90;2.70;;;22.10;99.90;;;;;;4977958;28;21186;-77
2023/09/14 00:08:38;;;;;;;5.17;2.93;;;22.00;99.90;;;;;;4978485;28;20440;-77
2023/09/14 00:11:05;;;;;;;3.00;2.80;;;22.10;99.90;;;;;;4962252;28;20457;-77
2023/09/14 00:13:36;;;;;;;2.87;2.57;;;22.00;99.90;;;;;;4964030;28;20480;-77
2023/09/14 00:16:02;;;;;;;4.17;2.90;;;22.00;99.90;;;;;;4979089;28;20528;-77
2023/09/14 00:18:28;;;;;;;2.83;2.30;;;22.00;99.90;;;;;;4965296;28;20421;-77
2023/09/14 00:20:57;;;;;;;3.57;3.27;;;22.00;99.90;;;;;;4983208;28;20445;-76
2023/09/14 00:23:23;;;;;;;5.27;2.83;;;22.00;99.90;;;;;;4982396;28;20472;-77
2023/09/14 00:25:49;;;;;;;3.37;2.73;;;22.00;99.90;;;;;;4975248;28;20544;-77
2023/09/14 00:28:15;;;;;;;2.80;2.50;;;22.00;99.90;;;;;;4961230;28;20442;-77
2023/09/14 00:30:41;;;;;;;2.97;2.67;;;22.00;99.90;;;;;;4959980;28;20994;-77
2023/09/14 00:33:08;;;;;;;4.47;2.80;;;21.90;99.90;;;;;;4959614;28;20449;-77
2023/09/14 00:35:36;;;;;;;2.73;2.53;;;22.00;99.90;;;;;;4959810;28;20662;-76
2023/09/14 00:38:06;;;;;;;3.20;2.67;;;21.90;99.90;;;;;;4944144;28;21011;-77
2023/09/14 00:40:35;;;;;;;2.30;2.10;;;21.90;99.90;;;;;;4960505;28;20473;-77
2023/09/14 00:43:01;;;;;;;3.07;2.77;;;21.90;99.90;;;;;;4951650;28;20457;-77
2023/09/14 00:45:27;;;;;;;2.20;2.10;;;21.90;99.90;;;;;;4962224;28;20538;-77
2023/09/14 00:47:57;;;;;;;4.03;2.67;;;21.90;99.90;;;;;;4960531;28;21220;-77
2023/09/14 00:50:24;;;;;;;3.03;2.83;;;21.80;99.90;;;;;;4943924;28;20627;-77
2023/09/14 00:53:02;;;;;;;3.70;3.30;;;21.90;99.90;;;;;;4960993;28;20790;-77
2023/09/14 00:55:29;;;;;;;2.87;2.60;;;21.80;99.90;;;;;;4945445;28;20533;-77
2023/09/14 00:57:59;;;;;;;4.30;3.00;;;21.80;99.90;;;;;;4959798;28;20454;-77
2023/09/14 01:00:29;;;;;;;4.93;2.70;;;21.80;99.90;;;;;;4960725;28;20885;-76
2023/09/14 01:02:56;;;;;;;3.80;3.30;;;21.80;99.90;;;;;;4960145;28;20450;-76
2023/09/14 01:05:28;;;;;;;3.13;2.50;;;21.80;99.90;;;;;;4960424;28;20468;-77
2023/09/14 01:07:54;;;;;;;3.47;3.17;;;21.80;99.90;;;;;;4960254;28;20441;-77
2023/09/14 01:10:20;;;;;;;2.70;2.50;;;21.80;99.90;;;;;;4957646;28;20447;-77
2023/09/14 01:12:51;;;;;;;3.93;3.00;;;21.80;99.90;;;;;;4940525;28;20438;-77
2023/09/14 01:15:43;;;;;;;3.07;2.87;;;21.80;90.60;;;;;;4943159;28;20564;-77
2023/09/14 01:18:19;;;;;;;3.27;2.53;;;21.70;90.60;;;;;;4942610;28;20456;-77
2023/09/14 01:21:30;;;;;;;5.63;3.07;;;21.70;90.60;;;;;;4960566;28;20519;-77
2023/09/14 01:23:58;;;;;;;3.00;2.70;;;21.70;90.60;;;;;;4959557;28;21305;-77
2023/09/14 01:26:28;;;;;;;4.47;3.00;;;21.70;90.50;;;;;;4969971;28;20526;-77
2023/09/14 01:28:54;;;;;;;3.10;2.70;;;21.70;90.60;;;;;;4944067;28;20438;-77
2023/09/14 01:31:20;;;;;;;3.10;2.80;;;21.70;90.50;;;;;;4959044;28;20473;-77
2023/09/14 01:33:48;;;;;;;2.90;2.60;;;21.70;90.50;;;;;;4960741;28;20457;-77
2023/09/14 01:36:22;;;;;;;2.97;2.67;;;21.70;90.50;;;;;;4942356;28;20434;-77
2023/09/14 01:38:53;;;;;;;2.67;2.47;;;21.60;90.40;;;;;;4958734;28;20560;-77
2023/09/14 01:41:22;;;;;;;3.10;2.43;;;21.60;90.40;;;;;;4958098;28;20457;-77
2023/09/14 01:43:54;;;;;;;3.10;2.37;;;21.70;90.50;;;;;;4942230;28;20536;-77
2023/09/14 01:46:23;;;;;;;2.80;2.60;;;21.60;90.40;;;;;;4958884;28;21297;-77
2023/09/14 01:48:52;;;;;;;2.70;2.50;;;21.60;90.40;;;;;;4959151;28;21303;-77
2023/09/14 01:51:21;;;;;;;5.33;2.80;;;21.60;90.40;;;;;;4960550;28;20461;-77
2023/09/14 01:53:49;;;;;;;2.70;2.50;;;21.60;90.40;;;;;;4962095;28;20228;-77
2023/09/14 01:56:18;;;;;;;2.53;2.40;;;21.60;90.40;;;;;;4948210;28;20437;-77
2023/09/14 01:58:45;;;;;;;2.73;2.53;;;21.60;90.50;;;;;;4959672;28;20760;-77
2023/09/14 02:01:11;;;;;;;3.10;2.90;;;21.50;90.60;;;;;;4958676;28;20466;-77
2023/09/14 02:03:39;;;;;;;2.90;2.40;;;21.50;90.70;;;;;;4958556;28;20519;-77
2023/09/14 02:06:12;;;;;;;2.57;2.37;;;21.50;90.80;;;;;;4958737;28;20452;-77
2023/09/14 02:08:41;;;;;;;3.50;2.80;;;21.50;91.00;;;;;;4958057;28;20989;-77
2023/09/14 02:11:07;;;;;;;2.50;2.30;;;21.50;91.10;;;;;;4958493;28;20435;-77
2023/09/14 02:13:34;;;;;;;2.80;2.60;;;21.50;91.30;;;;;;4959355;28;20427;-77
2023/09/14 02:16:01;;;;;;;3.00;2.80;;;21.50;91.30;;;;;;4958229;28;20533;-76
2023/09/14 02:18:27;;;;;;;2.40;2.20;;;21.50;91.30;;;;;;4957396;28;20437;-76
2023/09/14 02:20:53;;;;;;;3.03;2.47;;;21.50;91.50;;;;;;4958809;28;21242;-77
2023/09/14 02:23:21;;;;;;;2.80;2.60;;;21.50;91.60;;;;;;4960675;28;20438;-77
2023/09/14 02:25:49;;;;;;;3.07;2.63;;;21.40;91.60;;;;;;4980763;28;20471;-76
2023/09/14 02:28:15;;;;;;;2.70;2.50;;;21.50;91.70;;;;;;4968466;28;20436;-77
2023/09/14 02:30:42;;;;;;;3.07;2.60;;;21.50;91.70;;;;;;4983068;28;20454;-67
2023/09/14 02:33:08;;;;;;;3.00;2.70;;;21.40;91.80;;;;;;5001501;28;20447;-68
2023/09/14 02:35:36;;;;;;;2.60;2.40;;;21.30;91.70;;;;;;4983916;28;20444;-68
2023/09/14 02:38:04;;;;;;;4.20;2.63;;;21.40;91.80;;;;;;4983390;28;20992;-69
2023/09/14 02:40:33;;;;;;;3.00;2.60;;;21.30;91.80;;;;;;4983509;28;20479;-69
2023/09/14 02:42:59;;;;;;;2.60;2.40;;;21.30;91.80;;;;;;4984384;28;20550;-69
2023/09/14 02:45:25;;;;;;;3.00;2.43;;;21.30;91.90;;;;;;4984752;28;20452;-69
2023/09/14 02:47:51;;;;;;;6.97;2.93;;;21.30;92.00;;;;;;5063452;22;20498;-81
2023/09/14 02:50:17;;;;;;;2.93;2.50;;;21.30;92.10;;;;;;5064458;28;20443;-80
2023/09/14 02:52:43;;;;;;;3.63;2.63;;;21.30;92.00;;;;;;5045300;28;20725;-81
2023/09/14 02:55:09;;;;;;;2.93;2.73;;;21.30;92.10;;;;;;5054516;28;20248;-80
2023/09/14 02:57:40;;;;;;;3.70;2.60;;;21.30;92.20;;;;;;5072347;28;20313;-80
2023/09/14 03:00:07;;;;;;;2.87;2.43;;;21.30;92.40;;;;;;5057689;28;20594;-80
2023/09/14 03:02:34;;;;;;;3.30;3.00;;;21.30;92.30;;;;;;5053973;28;20438;-80
2023/09/14 03:05:02;;;;;;;3.10;2.67;;;21.20;92.20;;;;;;5037763;28;20903;-81
2023/09/14 03:07:28;;;;;;;3.20;2.90;;;21.30;92.20;;;;;;5053245;28;20544;-79
2023/09/14 03:09:55;;;;;;;2.80;2.60;;;21.20;92.30;;;;;;5044277;28;20876;-80
2023/09/14 03:12:21;;;;;;;2.80;2.60;;;21.40;92.60;;;;;;5063601;28;20449;-79
2023/09/14 03:14:47;;;;;;;2.97;2.57;;;21.20;92.30;;;;;;5055477;28;20578;-81
2023/09/14 03:17:12;;;;;;;2.77;2.57;;;21.20;92.10;;;;;;5067558;28;20987;-81
2023/09/14 03:19:41;;;;;;;3.43;3.00;;;21.20;92.10;;;;;;5075735;28;20216;-80
2023/09/14 03:22:10;;;;;;;3.17;2.97;;;21.20;92.10;;;;;;5045722;28;20200;-81
2023/09/14 03:24:36;;;;;;;3.00;2.57;;;21.20;92.10;;;;;;5070520;28;20430;-80
2023/09/14 03:27:02;;;;;;;2.70;2.50;;;21.20;92.20;;;;;;5073482;28;20447;-80
2023/09/14 03:29:28;;;;;;;2.90;2.67;;;21.20;92.20;;;;;;5073823;28;20497;-80
2023/09/14 03:31:54;;;;;;;7.47;2.90;;;21.20;92.10;;;;;;5046261;28;20774;-80
2023/09/14 03:34:25;;;;;;;3.03;2.57;;;21.10;91.90;;;;;;5064845;28;20444;-80
2023/09/14 03:36:53;;;;;;;3.93;3.00;;;21.10;92.10;;;;;;5060328;28;20519;-81
2023/09/14 03:39:22;;;;;;;3.57;3.10;;;21.10;92.10;;;;;;5076229;28;20534;-81
2023/09/14 03:41:49;;;;;;;3.20;2.97;;;21.10;92.20;;;;;;5076029;28;20511;-82
2023/09/14 03:44:15;;;;;;;3.87;2.93;;;21.10;92.10;;;;;;5057581;28;20747;-81
2023/09/14 03:46:46;;;;;;;3.67;2.67;;;21.10;92.20;;;;;;5058526;28;21020;-81
2023/09/14 03:49:12;;;;;;;3.40;2.70;;;21.10;92.30;;;;;;5074910;28;20908;-81
2023/09/14 03:51:40;;;;;;;4.30;2.87;;;21.00;92.30;;;;;;5060553;28;20476;-81
2023/09/14 03:54:06;;;;;;;3.00;2.50;;;21.10;92.30;;;;;;5072816;28;20279;-80
2023/09/14 03:56:34;;;;;;;3.40;2.63;;;21.00;92.20;;;;;;5052356;28;20529;-81
2023/09/14 03:59:02;;;;;;;3.20;2.80;;;21.10;92.70;;;;;;5063732;28;20215;-80
2023/09/14 04:01:28;;;;;;;3.83;2.87;;;21.10;92.30;;;;;;5071994;28;20428;-81
2023/09/14 04:03:54;;;;;;;2.57;2.33;;;21.00;92.40;;;;;;5092545;28;20300;-80
2023/09/14 04:06:24;;;;;;;2.90;2.70;;;21.00;92.40;;;;;;5103435;28;20195;-81
2023/09/14 04:08:50;;;;;;;3.77;2.83;;;21.00;92.50;;;;;;5080081;28;20190;-80
2023/09/14 04:11:16;;;;;;;2.97;2.67;;;20.90;92.60;;;;;;5064050;28;20432;-80
2023/09/14 04:13:42;;;;;;;2.77;2.40;;;20.90;92.70;;;;;;5060045;28;20304;-81
2023/09/14 04:16:12;;;;;;;2.90;2.60;;;21.00;92.90;;;;;;5062461;28;20184;-80
2023/09/14 04:18:42;;;;;;;3.60;2.90;;;20.90;92.70;;;;;;5068767;28;20421;-80
2023/09/14 04:21:11;;;;;;;5.37;2.77;;;20.90;92.80;;;;;;5051881;28;20764;-80
2023/09/14 04:23:37;;;;;;;3.10;2.90;;;20.90;92.80;;;;;;5052399;28;21271;-80
2023/09/14 04:26:06;;;;;;;2.90;2.60;;;20.90;92.90;;;;;;5054415;28;20457;-81
2023/09/14 04:28:34;;;;;;;4.60;3.00;;;20.90;93.10;;;;;;5066032;28;20996;-81
2023/09/14 04:31:02;;;;;;;3.30;2.50;;;21.10;93.00;;;;;;5067827;28;20495;-81
2023/09/14 04:33:32;;;;;;;4.60;2.73;;;20.90;92.90;;;;;;5056252;28;20535;-81
2023/09/14 04:36:05;;;;;;;3.63;3.07;;;20.90;92.90;;;;;;5063647;28;20470;-80
2023/09/14 04:38:32;;;;;;;3.50;3.20;;;20.90;93.10;;;;;;5059987;28;20595;-80
2023/09/14 04:41:02;;;;;;;3.47;3.17;;;20.90;93.10;;;;;;5065492;28;20442;-80
2023/09/14 04:43:29;;;;;;;2.80;2.60;;;20.90;93.20;;;;;;5055018;28;21155;-80
2023/09/14 04:46:17;;;;;;;2.93;2.67;;;20.90;93.30;;;;;;5044292;28;20456;-80
2023/09/14 04:48:43;;;;;;;2.87;2.57;;;20.90;93.60;;;;;;5051826;28;20468;-80
2023/09/14 04:51:12;;;;;;;3.77;2.83;;;20.80;93.60;;;;;;5069018;28;20521;-80
2023/09/14 04:53:38;;;;;;;2.90;2.70;;;20.80;93.80;;;;;;5072327;28;20462;-80
2023/09/14 04:56:07;;;;;;;3.00;2.53;;;20.70;93.90;;;;;;5070193;28;20204;-81
2023/09/14 04:58:34;;;;;;;2.83;2.60;;;20.60;93.90;;;;;;5062556;28;20464;-82
2023/09/14 05:01:00;;;;;;;5.07;2.60;;;20.80;94.20;;;;;;5064358;28;20537;-82
2023/09/14 05:03:26;;;;;;;2.87;2.60;;;20.80;94.10;;;;;;5073415;28;20419;-82
2023/09/14 05:05:54;;;;;;;4.10;3.07;;;20.70;94.20;;;;;;5056065;28;20434;-82
2023/09/14 05:08:22;;;;;;;3.50;3.20;;;20.70;94.20;;;;;;5065181;28;20449;-82
2023/09/14 05:10:51;;;;;;;3.67;3.03;;;20.70;94.30;;;;;;5050271;28;20451;-82
2023/09/14 05:13:20;;;;;;;2.90;2.70;;;20.70;94.50;;;;;;5049633;28;20508;-82
2023/09/14 05:15:46;;;;;;;5.67;2.60;;;20.70;94.50;;;;;;5051767;28;20440;-82
2023/09/14 05:18:15;;;;;;;3.00;2.63;;;20.70;94.50;;;;;;5052634;28;20446;-82
2023/09/14 05:20:49;;;;;;;3.27;2.67;;;20.70;94.50;;;;;;5070060;28;20504;-82
2023/09/14 05:23:15;;;;;;;3.43;3.13;;;20.70;94.60;;;;;;5054816;28;20423;-82
2023/09/14 05:25:45;;;;;;;3.10;2.67;;;20.70;94.60;;;;;;5043002;28;20600;-83
2023/09/14 05:28:12;;;;;;;3.33;2.83;;;20.70;94.80;;;;;;5051864;28;20435;-83
2023/09/14 05:30:38;;;;;;;2.90;2.60;;;20.70;94.80;;;;;;5066307;28;20436;-82
2023/09/14 05:33:09;;;;;;;3.00;2.70;;;20.70;95.00;;;;;;5053713;28;20427;-82
2023/09/14 05:35:38;;;;;;;3.17;2.87;;;20.60;94.90;;;;;;5070980;28;20917;-82
2023/09/14 05:38:04;;;;;;;5.07;3.90;;;20.70;94.90;;;;;;5070920;28;20514;-82
2023/09/14 05:40:32;;;;;;;2.97;2.73;;;20.60;94.90;;;;;;5052014;28;20808;-82
2023/09/14 05:42:59;;;;;;;2.70;2.50;;;20.60;95.10;;;;;;5051014;28;20431;-82
2023/09/14 05:45:25;;;;;;;2.87;2.67;;;20.60;95.30;;;;;;5069652;28;20436;-82
2023/09/14 05:47:51;;;;;;;4.43;2.90;;;20.60;95.50;;;;;;5066842;28;20455;-82
2023/09/14 05:50:19;;;;;;;6.50;3.70;;;20.60;95.40;;;;;;5054120;28;20446;-82
2023/09/14 05:52:45;;;;;;;3.40;3.10;;;20.60;95.50;;;;;;5057371;28;20447;-82
2023/09/14 05:55:15;;;;;;;2.80;2.60;;;20.60;95.60;;;;;;5054018;28;20459;-81
2023/09/14 05:57:41;;;;;;;3.63;3.33;;;20.60;95.60;;;;;;5067754;28;20537;-82
2023/09/14 06:00:13;;;;;;;3.60;2.47;;;20.60;95.80;;;;;;5063458;28;20526;-83
2023/09/14 06:02:44;;;;;;;3.73;2.40;;;20.60;95.90;;;;;;5082356;28;20424;-82
2023/09/14 06:05:15;;;;;;;4.07;3.17;;;20.60;96.20;;;;;;5076326;28;20453;-82
2023/09/14 06:07:41;;;;;;;4.93;3.13;;;20.50;96.50;;;;;;5064809;28;20425;-81
2023/09/14 06:10:12;;;;;;;3.73;3.43;;;20.60;96.70;;;;;;5066679;28;21030;-82
2023/09/14 06:12:41;;;;;;;4.00;2.70;;;20.50;97.10;;;;;;5063515;28;20425;-82
2023/09/14 06:15:07;;;;;;;2.70;2.40;;;20.50;97.20;;;;;;5049996;28;20421;-82
2023/09/14 06:17:34;;;;;;;6.23;3.03;;;20.50;97.20;;;;;;5076369;28;21009;-82
2023/09/14 06:20:00;;;;;;;3.50;2.77;;;20.50;97.50;;;;;;5073044;28;20458;-80
2023/09/14 06:22:26;;;;;;;2.87;2.67;;;20.50;97.70;;;;;;5053085;28;20425;-82
2023/09/14 06:24:54;;;;;;;3.47;2.83;;;20.50;97.60;;;;;;5064012;28;20712;-82
2023/09/14 06:27:20;;;;;;;3.43;3.13;;;20.40;97.50;;;;;;5063192;28;20503;-82
2023/09/14 06:29:46;;;;;;;3.07;2.83;;;20.40;97.60;;;;;;5031978;28;20432;-83
2023/09/14 06:32:12;;;;;;;3.83;2.93;;;20.40;97.60;;;;;;5075522;28;20953;-82
2023/09/14 06:34:38;;;;;;;4.30;2.90;;;20.50;97.70;;;;;;5044450;28;20460;-82
2023/09/14 06:37:06;;;;;;;3.70;3.00;;;20.40;97.80;;;;;;5090180;28;20188;-82
2023/09/14 06:39:32;;;;;;;2.90;2.70;;;20.40;97.60;;;;;;5057119;28;20266;-81
2023/09/14 06:41:58;;;;;;;5.00;2.90;;;20.40;97.70;;;;;;5074917;28;20452;-82
2023/09/14 06:44:25;;;;;;;5.33;2.97;;;20.40;97.80;;;;;;5063071;28;20451;-82
2023/09/14 06:46:51;;;;;;;4.00;3.20;;;20.40;98.10;;;;;;5041380;28;20196;-86
2023/09/14 06:49:17;;;;;;;2.93;2.73;;;20.40;99.10;;;;;;5055180;28;20474;-81
2023/09/14 06:51:43;;;;;;;6.70;2.90;;;20.30;99.30;;;;;;5065010;28;20447;-81
2023/09/14 06:54:09;;;;;;;3.50;3.20;;;20.30;99.20;;;;;;5049721;28;20436;-81
2023/09/14 06:56:40;;;;;;;3.50;3.07;;;20.40;98.30;;;;;;5054845;28;20416;-81
2023/09/14 06:59:06;;;;;;;3.00;2.70;;;20.30;97.90;;;;;;5070133;28;20586;-81
2023/09/14 07:01:33;;;;;;;5.20;3.50;;;20.30;98.00;;;;;;5098176;28;20453;-83
2023/09/14 07:04:00;;;;;;;4.00;2.80;;;20.40;98.00;;;;;;5058277;28;20194;-82
2023/09/14 07:06:26;;;;;;;3.60;3.30;;;20.40;98.00;;;;;;5069825;28;20445;-82
2023/09/14 07:08:55;;;;;;;3.50;3.30;;;20.30;98.10;;;;;;5043771;28;20476;-81
2023/09/14 07:11:21;;;;;;;2.97;2.73;;;20.30;97.90;;;;;;5064213;28;20447;-81
2023/09/14 07:13:47;;;;;;;3.03;2.73;;;20.40;98.20;;;;;;5064034;28;20778;-85
2023/09/14 07:16:13;;;;;;;3.03;2.70;;;20.30;98.10;;;;;;5049330;28;20524;-82
2023/09/14 07:18:39;;;;;;;4.47;3.20;;;20.30;98.10;;;;;;5053097;28;20556;-83
2023/09/14 07:21:05;;;;;;;3.93;3.50;;;20.30;98.20;;;;;;5053760;28;20494;-81
2023/09/14 07:23:31;;;;;;;3.30;3.10;;;20.40;98.20;;;;;;5090399;28;20738;-82
2023/09/14 07:25:59;;;;;;;3.50;3.20;;;20.30;98.30;;;;;;5054961;28;20703;-82
2023/09/14 07:28:25;;;;;;;4.50;3.20;;;20.40;98.40;;;;;;5052507;28;20447;-81
2023/09/14 07:30:51;;;;;;;3.87;3.33;;;20.30;98.30;;;;;;5071053;28;20462;-82
2023/09/14 07:33:18;;;;;;;4.00;3.27;;;20.30;98.30;;;;;;5055328;28;20445;-81
2023/09/14 07:35:46;;;;;;;6.77;3.30;;;20.30;98.70;;;;;;5055796;28;20445;-83
2023/09/14 07:38:14;;;;;;;3.30;3.00;;;20.30;98.30;;;;;;5049510;28;20467;-83
2023/09/14 07:40:42;;;;;;;5.63;3.90;;;20.30;98.40;;;;;;5066812;28;20480;-83
2023/09/14 07:43:08;;;;;;;4.40;3.10;;;20.40;98.70;;;;;;5036934;28;20939;-83
2023/09/14 07:45:38;;;;;;;3.23;2.90;;;20.30;98.70;;;;;;5053454;28;20479;-83
2023/09/14 07:48:18;;;;;;;3.40;3.10;;;20.30;98.80;;;;;;5053174;28;20455;-82
2023/09/14 07:50:47;;;;;;;3.77;3.10;;;20.50;99.50;;;;;;5020792;28;20495;-82
2023/09/14 07:53:33;;;;;;;6.80;3.60;;;20.40;99.70;;;;;;5055117;28;21017;-83
2023/09/14 07:56:00;;;;;;;4.03;3.73;;;20.30;99.10;;;;;;5035290;28;20426;-82
2023/09/14 07:58:26;;;;;;;3.67;3.37;;;20.30;99.60;;;;;;5062334;28;20481;-81
2023/09/14 08:00:54;;;;;;;4.70;3.90;;;20.30;99.10;;;;;;5069231;28;20225;-82
2023/09/14 08:03:20;;;;;;;3.50;3.20;;;20.30;98.90;;;;;;5077426;28;20419;-82
2023/09/14 08:05:51;;;;;;;4.20;3.73;;;20.30;99.30;;;;;;5052346;28;20484;-82
2023/09/14 08:08:24;;;;;;;5.23;3.93;;;20.40;99.00;;;;;;5050728;28;20512;-83
2023/09/14 08:11:02;;;;;;;3.67;3.20;;;20.30;99.20;;;;;;5054340;28;20435;-84
2023/09/14 08:13:28;;;;;;;3.77;3.37;;;20.30;98.90;;;;;;5046395;28;20449;-83
2023/09/14 08:15:55;;;;;;;4.17;3.53;;;20.40;99.20;;;;;;5062734;28;20450;-84
2023/09/14 08:18:21;;;;;;;4.93;3.43;;;20.70;99.90;;;;;;5058600;28;20181;-84
2023/09/14 08:20:51;;;;;;;3.83;3.47;;;20.30;99.60;;;;;;5037245;28;20503;-83
2023/09/14 08:23:20;;;;;;;3.83;3.33;;;20.40;99.90;;;;;;5031025;28;20601;-83
2023/09/14 08:25:47;;;;;;;4.03;3.73;;;20.60;99.50;;;;;;5049903;28;20429;-83
2023/09/14 08:28:23;;;;;;;4.23;3.83;;;20.40;99.10;;;;;;5066030;28;20434;-81
2023/09/14 08:31:01;;;;;;;3.77;3.43;;;20.40;99.50;;;;;;5071953;28;20489;-83
2023/09/14 08:33:45;;;;;;;3.73;3.43;;;20.30;99.20;;;;;;5038768;28;20450;-82
2023/09/14 08:36:11;;;;;;;6.50;3.60;;;20.40;99.60;;;;;;5049443;28;20790;-83
2023/09/14 08:39:02;;;;;;;5.40;4.37;;;20.30;99.00;;;;;;5056178;28;20445;-84
2023/09/14 08:41:38;;;;;;;3.80;3.50;;;20.40;99.00;;;;;;5041104;28;20434;-85
2023/09/14 08:44:07;;;;;;;4.50;3.87;;;20.40;99.10;;;;;;5050012;28;20460;-82
2023/09/14 08:46:35;;;;;;;4.63;4.23;;;20.40;99.10;;;;;;5028798;28;20416;-81
2023/09/14 08:49:05;;;;;;;4.70;4.23;;;20.40;99.30;;;;;;5077841;28;20988;-82
2023/09/14 08:51:51;;;;;;;4.50;3.77;;;20.40;99.20;;;;;;5060237;28;20881;-81
2023/09/14 08:54:30;;;;;;;3.77;3.43;;;20.40;99.20;;;;;;5044988;28;20441;-82
2023/09/14 08:56:56;;;;;;;6.93;4.70;;;20.60;99.70;;;;;;5063127;28;20425;-83
2023/09/14 08:59:40;;;;;;;6.13;4.13;;;20.40;99.40;;;;;;5044105;28;20580;-82
2023/09/14 09:02:15;;;;;;;4.40;3.93;;;20.40;99.50;;;;;;5039437;28;20533;-83
2023/09/14 09:04:41;;;;;;;4.13;3.77;;;21.00;99.70;;;;;;5016007;28;20524;-83
2023/09/14 09:07:08;;;;;;;3.80;3.40;;;20.40;99.40;;;;;;5042334;28;20821;-82
2023/09/14 09:09:36;;;;;;;4.47;4.07;;;20.50;99.40;;;;;;5056737;28;20519;-82
2023/09/14 09:12:05;;;;;;;4.60;4.20;;;20.40;99.30;;;;;;5058206;28;20421;-84
2023/09/14 09:14:31;;;;;;;3.80;3.37;;;20.50;99.50;;;;;;5060472;28;20410;-82
2023/09/14 09:16:59;;;;;;;6.03;4.00;;;20.50;99.50;;;;;;5069431;28;20414;-84
2023/09/14 09:19:27;;;;;;;4.20;3.80;;;20.50;99.50;;;;;;5053105;28;20522;-84
2023/09/14 09:21:53;;;;;;;4.83;3.57;;;20.50;99.60;;;;;;5031470;28;20439;-83
2023/09/14 09:24:26;;;;;;;3.70;3.30;;;20.50;99.60;;;;;;5023553;28;20446;-83
2023/09/14 09:26:52;;;;;;;3.73;3.37;;;20.50;99.60;;;;;;5063773;28;20443;-86
2023/09/14 09:29:19;;;;;;;5.83;3.93;;;20.60;99.60;;;;;;5057506;28;20456;-84
2023/09/14 09:31:55;;;;;;;3.60;3.30;;;20.60;99.70;;;;;;5035291;28;20447;-82
2023/09/14 09:34:24;;;;;;;4.00;3.20;;;20.60;99.80;;;;;;5031075;28;20522;-84
2023/09/14 09:36:59;;;;;;;6.37;3.40;;;20.70;99.80;;;;;;5025458;28;20963;-83
2023/09/14 09:39:27;;;;;;;4.50;4.20;;;20.70;99.80;;;;;;5029184;28;20487;-84
2023/09/14 09:41:53;;;;;;;4.10;3.80;;;20.60;99.80;;;;;;5035950;28;20472;-84
2023/09/14 09:44:19;;;;;;;5.80;3.40;;;20.70;99.90;;;;;;5009177;28;20454;-83
2023/09/14 09:46:45;;;;;;;5.07;4.60;;;20.70;99.90;;;;;;5013986;28;20211;-84
2023/09/14 09:49:19;;;;;;;5.10;3.80;;;20.70;99.90;;;;;;4990241;28;20488;-82
2023/09/14 09:51:49;;;;;;;4.30;3.90;;;20.70;99.90;;;;;;5026577;28;20492;-84
2023/09/14 09:54:18;;;;;;;3.80;3.50;;;20.70;99.90;;;;;;5000140;28;20451;-82
2023/09/14 09:56:46;;;;;;;4.00;3.70;;;20.70;99.90;;;;;;5040570;28;20493;-82
2023/09/14 09:59:14;;;;;;;3.70;3.40;;;20.80;99.90;;;;;;5037710;28;20478;-82
2023/09/14 10:01:50;;;;;;;3.40;3.10;;;20.80;99.80;;;;;;5017939;28;20434;-82
2023/09/14 10:04:17;;;;;;;5.20;3.63;;;20.80;99.90;;;;;;5026745;28;20466;-82
2023/09/14 10:06:59;;;;;;;3.77;3.47;;;20.90;99.90;;;;;;5023588;28;20432;-82
2023/09/14 10:09:34;;;;;;;3.37;3.07;;;20.80;99.80;;;;;;5087748;28;20434;-82
2023/09/14 10:12:03;;;;;;;5.50;4.30;;;20.90;99.80;;;;;;5054464;28;20407;-83
2023/09/14 10:14:32;;;;;;;7.53;4.10;;;20.90;99.90;;;;;;5069255;28;20435;-81
2023/09/14 10:16:59;;;;;;;5.93;4.03;;;20.90;99.80;;;;;;5071603;28;20802;-83
2023/09/14 10:19:27;;;;;;;3.20;3.00;;;21.00;99.90;;;;;;5079137;28;20471;-82
2023/09/14 10:21:56;;;;;;;3.60;3.40;;;21.00;99.90;;;;;;5083368;28;20413;-84
2023/09/14 10:24:24;;;;;;;4.50;4.10;;;21.00;99.80;;;;;;5071639;28;20938;-82
2023/09/14 10:27:24;;;;;;;3.90;3.50;;;21.00;99.70;;;;;;5060967;28;20452;-84
2023/09/14 10:29:56;;;;;;;4.00;3.70;;;20.90;99.60;;;;;;5055465;28;20500;-82
2023/09/14 10:32:23;;;;;;;3.80;3.50;;;21.10;99.60;;;;;;5069518;28;20436;-82
2023/09/14 10:34:50;;;;;;;6.97;3.87;;;21.10;99.60;;;;;;5050791;28;20548;-84
2023/09/14 10:37:21;;;;;;;3.97;3.67;;;21.10;99.60;;;;;;5061181;28;20428;-84
2023/09/14 10:39:47;;;;;;;4.07;3.67;;;21.10;98.90;;;;;;5067783;28;20461;-84
2023/09/14 10:43:05;;;;;;;4.37;3.27;;;21.20;91.80;;;;;;5068266;28;20454;-84
2023/09/14 10:57:58;;;;;;;3.10;2.90;;;22.00;90.80;;;;;;5089379;28;20455;-85
2023/09/14 11:01:30;;;;;;;3.50;3.30;;;21.30;91.00;;;;;;5076737;28;20573;-85
2023/09/14 11:12:33;;;;;;;5.10;4.07;;;21.50;90.40;;;;;;5089113;28;20424;-83
2023/09/14 11:15:32;;;;;;;3.50;3.20;;;21.40;90.80;;;;;;5042976;28;20485;-82
2023/09/14 11:17:58;;;;;;;4.20;3.80;;;21.30;90.40;;;;;;5068340;28;20483;-84
2023/09/14 11:20:27;;;;;;;3.63;3.33;;;21.40;90.40;;;;;;5073727;28;20478;-84
2023/09/14 11:23:07;;;;;;;4.87;3.73;;;21.40;90.20;;;;;;5073780;28;20768;-84
2023/09/14 11:31:06;;;;;;;3.47;3.17;;;22.00;90.40;;;;;;5083662;28;20414;-83
2023/09/14 11:34:16;;;;;;;4.30;3.53;;;22.00;90.40;;;;;;5057730;28;20454;-84
2023/09/14 11:36:51;;;;;;;3.93;3.63;;;22.00;90.30;;;;;;5030992;28;20920;-84
2023/09/14 11:40:18;;;;;;;4.17;3.30;;;21.90;90.20;;;;;;5066455;28;20470;-82
2023/09/14 11:43:20;;;;;;;4.13;3.83;;;22.10;90.30;;;;;;5073213;28;20810;-84
2023/09/14 11:53:24;;;;;;;3.70;3.40;;;21.60;89.80;;;;;;5098762;28;20416;-83
2023/09/14 12:05:08;;;;;;;4.07;3.67;;;22.20;90.10;;;;;;5087550;28;20504;-83
2023/09/14 12:08:10;;;;;;;4.60;4.20;;;22.00;90.00;;;;;;5052209;28;20472;-86
2023/09/14 12:10:39;;;;;;;5.17;3.60;;;21.80;89.80;;;;;;5072998;28;20477;-83
2023/09/14 12:14:13;;;;;;;3.87;3.57;;;21.80;89.70;;;;;;4997148;28;21198;-86
2023/09/14 12:16:40;;;;;;;3.77;3.50;;;21.80;89.60;;;;;;4984324;28;20539;-84
2023/09/14 12:19:13;;;;;;;3.90;3.60;;;21.80;89.60;;;;;;4973722;28;21266;-81
2023/09/14 12:21:44;;;;;;;4.23;3.87;;;21.90;89.50;;;;;;4970457;28;20448;-82
2023/09/14 12:24:10;;;;;;;5.07;4.57;;;21.90;89.40;;;;;;4994917;28;20449;-82
2023/09/14 12:26:38;;;;;;;4.30;4.00;;;21.90;89.10;;;;;;4986868;28;20455;-82
2023/09/14 12:29:30;;;;;;;3.80;3.50;;;21.90;89.00;;;;;;4973209;28;20441;-85
2023/09/14 12:31:58;;;;;;;4.50;4.13;;;22.00;89.00;;;;;;4989289;28;20534;-85
2023/09/14 12:34:24;;;;;;;3.93;3.63;;;22.00;89.00;;;;;;4989979;28;20484;-87
2023/09/14 12:36:50;;;;;;;4.13;3.73;;;22.00;89.30;;;;;;4993911;28;20591;-86
2023/09/14 12:40:21;;;;;;;4.00;3.70;;;22.00;88.80;;;;;;4991898;28;20532;-85
2023/09/14 12:43:40;;;;;;;5.23;4.80;;;21.80;88.40;;;;;;4970270;28;20250;-84
2023/09/14 12:46:07;;;;;;;4.67;4.23;;;22.00;88.40;;;;;;5011861;28;20463;-84
2023/09/14 12:48:33;;;;;;;5.13;4.67;;;22.00;89.20;;;;;;4973981;28;20452;-83
2023/09/14 12:51:05;;;;;;;5.13;4.73;;;22.10;88.30;;;;;;5059846;28;20466;-84
2023/09/14 12:53:42;;;;;;;5.20;4.80;;;22.10;88.30;;;;;;5054357;28;20521;-84
2023/09/14 12:56:12;;;;;;;4.57;4.23;;;22.10;88.20;;;;;;5071794;28;20448;-84
2023/09/14 12:58:43;;;;;;;5.23;4.40;;;22.10;88.30;;;;;;5076246;28;20804;-84
2023/09/14 13:01:09;;;;;;;5.73;4.80;;;22.10;88.30;;;;;;5038724;28;20491;-83
2023/09/14 13:03:36;;;;;;;5.40;5.00;;;22.20;88.10;;;;;;5039705;28;20432;-83
2023/09/14 13:06:30;;;;;;;5.80;4.87;;;22.20;88.00;;;;;;5046577;28;20965;-85
2023/09/14 13:08:56;;;;;;;5.03;4.60;;;22.20;87.90;;;;;;5030372;28;20481;-84
2023/09/14 13:11:31;;;;;;;4.97;4.57;;;22.20;87.60;;;;;;5061874;28;20452;-84
2023/09/14 13:14:00;;;;;;;6.10;5.50;;;22.20;87.60;;;;;;5022108;28;20449;-83
2023/09/14 13:16:27;;;;;;;5.43;5.00;;;22.30;87.70;;;;;;5037963;28;20496;-83
2023/09/14 13:18:54;;;;;;;5.13;4.73;;;22.30;87.60;;;;;;5045404;28;20802;-84
2023/09/14 13:21:22;;;;;;;6.07;5.57;;;22.30;87.90;;;;;;5037653;28;20437;-84
2023/09/14 13:23:52;;;;;;;7.27;6.10;;;22.30;87.50;;;;;;5088732;28;20421;-83
2023/09/14 13:26:42;;;;;;;7.20;6.60;;;22.30;87.30;;;;;;5064340;28;20425;-83
2023/09/14 13:29:09;;;;;;;6.80;6.20;;;22.40;87.10;;;;;;5050878;28;20451;-83
2023/09/14 13:31:36;;;;;;;6.70;6.10;;;22.40;87.40;;;;;;5066893;28;20432;-84
2023/09/14 13:34:02;;;;;;;6.40;5.90;;;22.40;87.30;;;;;;5054674;28;20460;-84
2023/09/14 13:36:33;;;;;;;6.90;6.30;;;22.40;86.90;;;;;;5055112;28;20439;-85
2023/09/14 13:39:01;;;;;;;6.40;5.90;;;22.40;86.80;;;;;;5056979;28;20729;-83
2023/09/14 13:41:29;;;;;;;7.30;6.60;;;22.50;87.00;;;;;;5080278;28;20450;-84
2023/09/14 13:44:07;;;;;;;6.40;5.90;;;22.50;87.20;;;;;;5097963;28;20440;-86
2023/09/14 13:46:32;;;;;;;6.80;6.20;;;22.50;87.20;;;;;;5071111;28;20552;-87
2023/09/14 13:48:58;;;;;;;7.23;6.47;;;22.50;86.90;;;;;;5061180;28;20533;-86